sensor_id;sensor_type;location;lat;lon;timestamp;pressure;altitude;pressure_sealevel;temperature;humidity
75794;BME280;64418;47.536;19.074;2023-01-19T00:02:01;98703.75;;;4.20;100.00
75794;BME280;64418;47.536;19.074;2023-01-19T00:04:27;98709.53;;;4.17;100.00
75794;BME280;64418;47.536;19.074;2023-01-19T00:06:53;98708.69;;;4.16;100.00
75794;BME280;64418;47.536;19.074;2023-01-19T00:09:18;98707.06;;;4.15;100.00
75794;BME280;64418;47.536;19.074;2023-01-19T00:11:45;98705.84;;;4.11;100.00
75794;BME280;64418;47.536;19.074;2023-01-19T00:14:12;98712.81;;;4.12;100.00
75794;BME280;64418;47.536;19.074;2023-01-19T00:16:38;98710.38;;;4.11;100.00
75794;BME280;64418;47.536;19.074;2023-01-19T00:19:03;98696.34;;;4.09;100.00
75794;BME280;64418;47.536;19.074;2023-01-19T00:21:29;98702.34;;;4.11;100.00
75794;BME280;64418;47.536;19.074;2023-01-19T00:23:55;98705.00;;;4.11;100.00
75794;BME280;64418;47.536;19.074;2023-01-19T00:26:20;98706.22;;;4.08;100.00
75794;BME280;64418;47.536;19.074;2023-01-19T00:28:48;98707.06;;;4.09;100.00
75794;BME280;64418;47.536;19.074;2023-01-19T00:31:13;98697.59;;;4.06;100.00
75794;BME280;64418;47.536;19.074;2023-01-19T00:33:39;98700.47;;;4.05;100.00
75794;BME280;64418;47.536;19.074;2023-01-19T00:36:05;98706.88;;;4.04;100.00
75794;BME280;64418;47.536;19.074;2023-01-19T00:38:31;98698.84;;;4.04;100.00
75794;BME280;64418;47.536;19.074;2023-01-19T00:40:56;98706.22;;;4.02;100.00
75794;BME280;64418;47.536;19.074;2023-01-19T00:43:22;98702.94;;;4.00;100.00
75794;BME280;64418;47.536;19.074;2023-01-19T00:45:50;98705.81;;;3.98;100.00
75794;BME280;64418;47.536;19.074;2023-01-19T00:48:15;98710.75;;;3.95;100.00
75794;BME280;64418;47.536;19.074;2023-01-19T00:50:41;98703.16;;;3.92;100.00
75794;BME280;64418;47.536;19.074;2023-01-19T00:53:07;98700.88;;;3.88;100.00
75794;BME280;64418;47.536;19.074;2023-01-19T00:55:33;98700.25;;;3.86;100.00
75794;BME280;64418;47.536;19.074;2023-01-19T00:57:59;98698.59;;;3.85;100.00
75794;BME280;64418;47.536;19.074;2023-01-19T01:00:25;98688.28;;;3.82;100.00
75794;BME280;64418;47.536;19.074;2023-01-19T01:02:52;98692.00;;;3.81;100.00
75794;BME280;64418;47.536;19.074;2023-01-19T01:05:19;98683.16;;;3.81;100.00
75794;BME280;64418;47.536;19.074;2023-01-19T01:07:46;98693.22;;;3.79;100.00
75794;BME280;64418;47.536;19.074;2023-01-19T01:10:13;98690.13;;;3.75;100.00
75794;BME280;64418;47.536;19.074;2023-01-19T01:12:39;98684.19;;;3.73;100.00
75794;BME280;64418;47.536;19.074;2023-01-19T01:15:07;98694.25;;;3.71;100.00
75794;BME280;64418;47.536;19.074;2023-01-19T01:17:33;98688.47;;;3.68;100.00
75794;BME280;64418;47.536;19.074;2023-01-19T01:20:00;98682.09;;;3.69;100.00
75794;BME280;64418;47.536;19.074;2023-01-19T01:22:26;98672.41;;;3.68;100.00
75794;BME280;64418;47.536;19.074;2023-01-19T01:24:52;98675.69;;;3.63;100.00
75794;BME280;64418;47.536;19.074;2023-01-19T01:27:17;98674.87;;;3.63;100.00
75794;BME280;64418;47.536;19.074;2023-01-19T01:29:44;98677.53;;;3.56;100.00
75794;BME280;64418;47.536;19.074;2023-01-19T01:32:11;98694.44;;;3.57;100.00
75794;BME280;64418;47.536;19.074;2023-01-19T01:34:38;98694.62;;;3.55;100.00
75794;BME280;64418;47.536;19.074;2023-01-19T01:37:06;98692.16;;;3.54;100.00
75794;BME280;64418;47.536;19.074;2023-01-19T01:39:32;98685.38;;;3.51;100.00
75794;BME280;64418;47.536;19.074;2023-01-19T01:41:58;98685.56;;;3.50;100.00
75794;BME280;64418;47.536;19.074;2023-01-19T01:44:48;98676.09;;;3.47;100.00
75794;BME280;64418;47.536;19.074;2023-01-19T01:47:17;98676.47;;;3.44;100.00
75794;BME280;64418;47.536;19.074;2023-01-19T01:49:46;98690.69;;;3.45;100.00
75794;BME280;64418;47.536;19.074;2023-01-19T01:52:14;98685.56;;;3.43;100.00
75794;BME280;64418;47.536;19.074;2023-01-19T01:54:41;98683.06;;;3.35;100.00
75794;BME280;64418;47.536;19.074;2023-01-19T01:57:08;98687.59;;;3.41;100.00
75794;BME280;64418;47.536;19.074;2023-01-19T01:59:36;98694.19;;;3.38;100.00
75794;BME280;64418;47.536;19.074;2023-01-19T02:02:06;98693.38;;;3.38;100.00
75794;BME280;64418;47.536;19.074;2023-01-19T02:04:34;98711.50;;;3.36;100.00
75794;BME280;64418;47.536;19.074;2023-01-19T02:07:01;98710.84;;;3.34;100.00
75794;BME280;64418;47.536;19.074;2023-01-19T02:09:30;98717.22;;;3.33;100.00
75794;BME280;64418;47.536;19.074;2023-01-19T02:11:57;98723.62;;;3.32;100.00
75794;BME280;64418;47.536;19.074;2023-01-19T02:14:23;98733.06;;;3.28;100.00
75794;BME280;64418;47.536;19.074;2023-01-19T02:16:50;98717.03;;;3.28;100.00
75794;BME280;64418;47.536;19.074;2023-01-19T02:19:19;98701.97;;;3.27;100.00
75794;BME280;64418;47.536;19.074;2023-01-19T02:21:52;98678.91;;;3.26;100.00
75794;BME280;64418;47.536;19.074;2023-01-19T02:24:20;98657.72;;;3.24;100.00
75794;BME280;64418;47.536;19.074;2023-01-19T02:26:47;98660.59;;;3.23;100.00
75794;BME280;64418;47.536;19.074;2023-01-19T02:29:15;98669.44;;;3.23;100.00
75794;BME280;64418;47.536;19.074;2023-01-19T02:31:42;98692.72;;;3.23;100.00
75794;BME280;64418;47.536;19.074;2023-01-19T02:34:12;98708.16;;;3.21;100.00
75794;BME280;64418;47.536;19.074;2023-01-19T02:36:44;98729.94;;;3.18;100.00
75794;BME280;64418;47.536;19.074;2023-01-19T02:39:14;98732.59;;;3.18;100.00
75794;BME280;64418;47.536;19.074;2023-01-19T02:41:45;98712.63;;;3.14;100.00
75794;BME280;64418;47.536;19.074;2023-01-19T02:44:14;98694.31;;;3.11;100.00
75794;BME280;64418;47.536;19.074;2023-01-19T02:46:41;98701.72;;;3.09;100.00
75794;BME280;64418;47.536;19.074;2023-01-19T02:49:07;98685.03;;;3.07;100.00
75794;BME280;64418;47.536;19.074;2023-01-19T02:51:33;98675.37;;;3.06;100.00
75794;BME280;64418;47.536;19.074;2023-01-19T02:54:16;98666.72;;;3.04;100.00
75794;BME280;64418;47.536;19.074;2023-01-19T02:57:02;98663.19;;;3.03;100.00
75794;BME280;64418;47.536;19.074;2023-01-19T02:59:41;98666.09;;;3.02;100.00
75794;BME280;64418;47.536;19.074;2023-01-19T03:02:20;98689.53;;;3.00;100.00
75794;BME280;64418;47.536;19.074;2023-01-19T03:04:57;98685.84;;;3.01;100.00
75794;BME280;64418;47.536;19.074;2023-01-19T03:07:32;98697.78;;;2.98;100.00
75794;BME280;64418;47.536;19.074;2023-01-19T03:10:06;98703.91;;;2.99;100.00
75794;BME280;64418;47.536;19.074;2023-01-19T03:12:39;98700.63;;;2.97;100.00
75794;BME280;64418;47.536;19.074;2023-01-19T03:15:16;98697.34;;;2.95;100.00
75794;BME280;64418;47.536;19.074;2023-01-19T03:17:44;98690.34;;;2.94;100.00
75794;BME280;64418;47.536;19.074;2023-01-19T03:20:13;98707.22;;;2.94;100.00
75794;BME280;64418;47.536;19.074;2023-01-19T03:22:41;98722.44;;;2.94;100.00
75794;BME280;64418;47.536;19.074;2023-01-19T03:25:08;98727.56;;;2.95;100.00
75794;BME280;64418;47.536;19.074;2023-01-19T03:27:38;98738.47;;;2.94;100.00
75794;BME280;64418;47.536;19.074;2023-01-19T03:30:06;98739.09;;;2.96;100.00
75794;BME280;64418;47.536;19.074;2023-01-19T03:32:36;98720.78;;;2.92;100.00
75794;BME280;64418;47.536;19.074;2023-01-19T03:35:08;98698.53;;;2.92;100.00
75794;BME280;64418;47.536;19.074;2023-01-19T03:37:38;98685.38;;;2.90;100.00
75794;BME280;64418;47.536;19.074;2023-01-19T03:40:07;98678.78;;;2.86;100.00
75794;BME280;64418;47.536;19.074;2023-01-19T03:42:34;98655.34;;;2.88;100.00
75794;BME280;64418;47.536;19.074;2023-01-19T03:45:04;98641.12;;;2.88;100.00
75794;BME280;64418;47.536;19.074;2023-01-19T03:47:34;98636.84;;;2.87;100.00
75794;BME280;64418;47.536;19.074;2023-01-19T03:50:03;98644.41;;;2.83;100.00
75794;BME280;64418;47.536;19.074;2023-01-19T03:52:31;98645.44;;;2.82;100.00
75794;BME280;64418;47.536;19.074;2023-01-19T03:54:57;98669.69;;;2.81;100.00
75794;BME280;64418;47.536;19.074;2023-01-19T03:57:24;98673.59;;;2.78;100.00
75794;BME280;64418;47.536;19.074;2023-01-19T03:59:49;98670.06;;;2.71;100.00
75794;BME280;64418;47.536;19.074;2023-01-19T04:02:17;98672.34;;;2.74;100.00
75794;BME280;64418;47.536;19.074;2023-01-19T04:04:43;98692.28;;;2.72;100.00
75794;BME280;64418;47.536;19.074;2023-01-19T04:07:09;98703.78;;;2.72;100.00
75794;BME280;64418;47.536;19.074;2023-01-19T04:09:35;98710.38;;;2.70;100.00
75794;BME280;64418;47.536;19.074;2023-01-19T04:12:01;98699.06;;;2.68;100.00
75794;BME280;64418;47.536;19.074;2023-01-19T04:14:27;98679.69;;;2.66;100.00
75794;BME280;64418;47.536;19.074;2023-01-19T04:16:54;98692.63;;;2.62;100.00
75794;BME280;64418;47.536;19.074;2023-01-19T04:19:21;98703.97;;;2.64;100.00
75794;BME280;64418;47.536;19.074;2023-01-19T04:21:47;98706.66;;;2.64;100.00
75794;BME280;64418;47.536;19.074;2023-01-19T04:24:13;98699.25;;;2.66;100.00
75794;BME280;64418;47.536;19.074;2023-01-19T04:26:38;98705.59;;;2.65;99.93
75794;BME280;64418;47.536;19.074;2023-01-19T04:29:04;98698.81;;;2.63;99.71
75794;BME280;64418;47.536;19.074;2023-01-19T04:31:30;98696.72;;;2.58;98.79
75794;BME280;64418;47.536;19.074;2023-01-19T04:33:56;98704.13;;;2.56;97.80
75794;BME280;64418;47.536;19.074;2023-01-19T04:36:24;98681.47;;;2.52;98.09
75794;BME280;64418;47.536;19.074;2023-01-19T04:38:50;98688.47;;;2.53;98.18
75794;BME280;64418;47.536;19.074;2023-01-19T04:41:15;98694.19;;;2.50;98.68
75794;BME280;64418;47.536;19.074;2023-01-19T04:43:41;98686.19;;;2.50;98.20
75794;BME280;64418;47.536;19.074;2023-01-19T04:46:07;98676.53;;;2.49;98.29
75794;BME280;64418;47.536;19.074;2023-01-19T04:48:33;98673.88;;;2.49;98.33
75794;BME280;64418;47.536;19.074;2023-01-19T04:50:59;98678.38;;;2.49;98.01
75794;BME280;64418;47.536;19.074;2023-01-19T04:53:27;98673.66;;;2.51;97.09
75794;BME280;64418;47.536;19.074;2023-01-19T04:55:53;98668.72;;;2.48;97.34
75794;BME280;64418;47.536;19.074;2023-01-19T04:58:19;98668.28;;;2.44;97.60
75794;BME280;64418;47.536;19.074;2023-01-19T05:00:45;98686.75;;;2.46;97.36
75794;BME280;64418;47.536;19.074;2023-01-19T05:03:11;98680.63;;;2.45;97.38
75794;BME280;64418;47.536;19.074;2023-01-19T05:05:37;98703.00;;;2.44;97.18
75794;BME280;64418;47.536;19.074;2023-01-19T05:08:03;98708.34;;;2.44;97.30
75794;BME280;64418;47.536;19.074;2023-01-19T05:10:30;98719.66;;;2.46;97.01
75794;BME280;64418;47.536;19.074;2023-01-19T05:12:56;98734.06;;;2.45;96.97
75794;BME280;64418;47.536;19.074;2023-01-19T05:15:22;98727.91;;;2.45;97.47
75794;BME280;64418;47.536;19.074;2023-01-19T05:17:48;98706.09;;;2.41;97.92
75794;BME280;64418;47.536;19.074;2023-01-19T05:20:14;98709.38;;;2.43;98.28
75794;BME280;64418;47.536;19.074;2023-01-19T05:22:40;98719.72;;;2.53;97.36
75794;BME280;64418;47.536;19.074;2023-01-19T05:25:08;98731.03;;;2.55;97.46
75794;BME280;64418;47.536;19.074;2023-01-19T05:27:35;98734.28;;;2.50;97.75
75794;BME280;64418;47.536;19.074;2023-01-19T05:30:02;98747.66;;;2.50;98.19
75794;BME280;64418;47.536;19.074;2023-01-19T05:32:28;98747.66;;;2.50;97.81
75794;BME280;64418;47.536;19.074;2023-01-19T05:34:54;98751.56;;;2.48;98.14
75794;BME280;64418;47.536;19.074;2023-01-19T05:37:20;98741.88;;;2.47;98.06
75794;BME280;64418;47.536;19.074;2023-01-19T05:39:46;98750.09;;;2.45;98.22
75794;BME280;64418;47.536;19.074;2023-01-19T05:42:12;98747.44;;;2.45;98.79
75794;BME280;64418;47.536;19.074;2023-01-19T05:44:40;98746.38;;;2.46;98.51
75794;BME280;64418;47.536;19.074;2023-01-19T05:47:06;98743.53;;;2.48;98.15
75794;BME280;64418;47.536;19.074;2023-01-19T05:49:32;98730.34;;;2.46;97.82
75794;BME280;64418;47.536;19.074;2023-01-19T05:51:57;98733.03;;;2.46;98.19
75794;BME280;64418;47.536;19.074;2023-01-19T05:54:23;98723.81;;;2.49;97.93
75794;BME280;64418;47.536;19.074;2023-01-19T05:56:49;98729.16;;;2.49;98.14
75794;BME280;64418;47.536;19.074;2023-01-19T05:59:14;98728.53;;;2.53;97.04
75794;BME280;64418;47.536;19.074;2023-01-19T06:01:42;98723.84;;;2.55;97.40
75794;BME280;64418;47.536;19.074;2023-01-19T06:04:07;98704.50;;;2.53;97.22
75794;BME280;64418;47.536;19.074;2023-01-19T06:06:33;98690.37;;;2.59;96.39
75794;BME280;64418;47.536;19.074;2023-01-19T06:08:59;98699.81;;;2.62;95.34
75794;BME280;64418;47.536;19.074;2023-01-19T06:11:25;98700.41;;;2.57;95.73
75794;BME280;64418;47.536;19.074;2023-01-19T06:13:51;98697.13;;;2.55;95.93
75794;BME280;64418;47.536;19.074;2023-01-19T06:16:16;98708.00;;;2.54;96.12
75794;BME280;64418;47.536;19.074;2023-01-19T06:18:44;98690.28;;;2.46;96.55
75794;BME280;64418;47.536;19.074;2023-01-19T06:21:10;98688.38;;;2.40;97.52
75794;BME280;64418;47.536;19.074;2023-01-19T06:23:36;98702.16;;;2.37;97.98
75794;BME280;64418;47.536;19.074;2023-01-19T06:26:03;98704.19;;;2.35;98.20
75794;BME280;64418;47.536;19.074;2023-01-19T06:28:29;98699.88;;;2.34;98.36
75794;BME280;64418;47.536;19.074;2023-01-19T06:30:56;98687.53;;;2.33;98.66
75794;BME280;64418;47.536;19.074;2023-01-19T06:33:23;98682.59;;;2.30;98.99
75794;BME280;64418;47.536;19.074;2023-01-19T06:35:51;98682.03;;;2.41;98.30
75794;BME280;64418;47.536;19.074;2023-01-19T06:38:16;98694.19;;;2.50;97.79
75794;BME280;64418;47.536;19.074;2023-01-19T06:40:51;98702.47;;;2.55;97.29
75794;BME280;64418;47.536;19.074;2023-01-19T06:43:18;98726.34;;;2.57;97.30
75794;BME280;64418;47.536;19.074;2023-01-19T06:45:45;98729.03;;;2.63;97.02
75794;BME280;64418;47.536;19.074;2023-01-19T06:48:11;98727.19;;;2.64;97.04
75794;BME280;64418;47.536;19.074;2023-01-19T06:50:37;98741.59;;;2.63;97.32
75794;BME280;64418;47.536;19.074;2023-01-19T06:53:05;98737.50;;;2.67;97.11
75794;BME280;64418;47.536;19.074;2023-01-19T06:55:31;98739.75;;;2.63;97.13
75794;BME280;64418;47.536;19.074;2023-01-19T06:57:57;98730.09;;;2.69;96.74
75794;BME280;64418;47.536;19.074;2023-01-19T07:00:24;98714.25;;;2.67;96.85
75794;BME280;64418;47.536;19.074;2023-01-19T07:02:52;98737.53;;;2.73;96.95
75794;BME280;64418;47.536;19.074;2023-01-19T07:05:17;98719.78;;;2.66;97.34
75794;BME280;64418;47.536;19.074;2023-01-19T07:07:49;98721.47;;;2.67;97.46
75794;BME280;64418;47.536;19.074;2023-01-19T07:10:17;98722.50;;;2.72;97.01
75794;BME280;64418;47.536;19.074;2023-01-19T07:12:43;98704.19;;;2.69;97.48
75794;BME280;64418;47.536;19.074;2023-01-19T07:15:09;98711.38;;;2.69;97.22
75794;BME280;64418;47.536;19.074;2023-01-19T07:17:36;98705.41;;;2.67;97.61
75794;BME280;64418;47.536;19.074;2023-01-19T07:20:02;98709.53;;;2.69;97.70
75794;BME280;64418;47.536;19.074;2023-01-19T07:22:28;98703.00;;;2.72;97.68
75794;BME280;64418;47.536;19.074;2023-01-19T07:24:54;98719.66;;;2.74;98.03
75794;BME280;64418;47.536;19.074;2023-01-19T07:27:21;98742.13;;;2.86;97.68
75794;BME280;64418;47.536;19.074;2023-01-19T07:29:47;98742.56;;;2.89;97.61
75794;BME280;64418;47.536;19.074;2023-01-19T07:32:13;98746.50;;;2.94;97.20
75794;BME280;64418;47.536;19.074;2023-01-19T07:34:39;98745.47;;;2.95;97.16
75794;BME280;64418;47.536;19.074;2023-01-19T07:37:04;98738.91;;;2.97;96.97
75794;BME280;64418;47.536;19.074;2023-01-19T07:39:30;98747.53;;;2.99;96.83
75794;BME280;64418;47.536;19.074;2023-01-19T07:41:56;98741.59;;;3.04;96.91
75794;BME280;64418;47.536;19.074;2023-01-19T07:44:27;98746.75;;;3.05;96.67
75794;BME280;64418;47.536;19.074;2023-01-19T07:46:54;98741.41;;;3.05;96.11
75794;BME280;64418;47.536;19.074;2023-01-19T07:49:21;98755.00;;;3.10;96.28
75794;BME280;64418;47.536;19.074;2023-01-19T07:51:48;98750.47;;;3.11;96.83
75794;BME280;64418;47.536;19.074;2023-01-19T07:54:17;98750.06;;;3.14;96.89
75794;BME280;64418;47.536;19.074;2023-01-19T07:56:42;98758.75;;;3.16;96.98
75794;BME280;64418;47.536;19.074;2023-01-19T07:59:09;98749.69;;;3.17;96.59
75794;BME280;64418;47.536;19.074;2023-01-19T08:01:37;98762.03;;;3.18;96.78
75794;BME280;64418;47.536;19.074;2023-01-19T08:04:04;98762.69;;;3.20;96.61
75794;BME280;64418;47.536;19.074;2023-01-19T08:06:33;98761.66;;;3.21;96.48
75794;BME280;64418;47.536;19.074;2023-01-19T08:09:03;98759.19;;;3.26;96.31
75794;BME280;64418;47.536;19.074;2023-01-19T08:11:29;98760.22;;;3.25;96.21
75794;BME280;64418;47.536;19.074;2023-01-19T08:13:55;98757.16;;;3.28;96.00
75794;BME280;64418;47.536;19.074;2023-01-19T08:16:21;98751.81;;;3.28;95.85
75794;BME280;64418;47.536;19.074;2023-01-19T08:18:48;98747.28;;;3.28;95.53
75794;BME280;64418;47.536;19.074;2023-01-19T08:21:14;98746.66;;;3.33;95.60
75794;BME280;64418;47.536;19.074;2023-01-19T08:23:43;98742.97;;;3.34;95.66
75794;BME280;64418;47.536;19.074;2023-01-19T08:26:29;98740.28;;;3.34;95.12
75794;BME280;64418;47.536;19.074;2023-01-19T08:28:56;98727.16;;;3.39;95.16
75794;BME280;64418;47.536;19.074;2023-01-19T08:31:22;98741.13;;;3.41;95.02
75794;BME280;64418;47.536;19.074;2023-01-19T08:33:50;98737.44;;;3.42;94.90
75794;BME280;64418;47.536;19.074;2023-01-19T08:36:16;98739.94;;;3.44;94.99
75794;BME280;64418;47.536;19.074;2023-01-19T08:38:43;98746.50;;;3.41;94.78
75794;BME280;64418;47.536;19.074;2023-01-19T08:41:09;98753.50;;;3.42;95.18
75794;BME280;64418;47.536;19.074;2023-01-19T08:43:35;98751.00;;;3.40;95.41
75794;BME280;64418;47.536;19.074;2023-01-19T08:46:01;98762.78;;;3.46;95.43
75794;BME280;64418;47.536;19.074;2023-01-19T08:48:28;98760.09;;;3.46;95.26
75794;BME280;64418;47.536;19.074;2023-01-19T08:50:56;98746.06;;;3.44;95.33
75794;BME280;64418;47.536;19.074;2023-01-19T08:53:23;98765.47;;;3.46;95.74
75794;BME280;64418;47.536;19.074;2023-01-19T08:55:49;98767.50;;;3.44;95.64
75794;BME280;64418;47.536;19.074;2023-01-19T08:58:18;98766.47;;;3.45;95.98
75794;BME280;64418;47.536;19.074;2023-01-19T09:00:44;98765.47;;;3.46;96.20
75794;BME280;64418;47.536;19.074;2023-01-19T09:03:11;98766.28;;;3.47;96.16
75794;BME280;64418;47.536;19.074;2023-01-19T09:05:38;98767.50;;;3.44;96.07
75794;BME280;64418;47.536;19.074;2023-01-19T09:08:06;98760.50;;;3.43;96.19
75794;BME280;64418;47.536;19.074;2023-01-19T09:10:32;98753.50;;;3.42;96.21
75794;BME280;64418;47.536;19.074;2023-01-19T09:12:58;98751.84;;;3.41;96.46
75794;BME280;64418;47.536;19.074;2023-01-19T09:15:25;98751.84;;;3.41;96.56
75794;BME280;64418;47.536;19.074;2023-01-19T09:17:51;98757.19;;;3.41;96.62
75794;BME280;64418;47.536;19.074;2023-01-19T09:20:17;98747.31;;;3.42;96.76
75794;BME280;64418;47.536;19.074;2023-01-19T09:22:43;98758.03;;;3.42;97.03
75794;BME280;64418;47.536;19.074;2023-01-19T09:25:12;98765.03;;;3.43;97.24
75794;BME280;64418;47.536;19.074;2023-01-19T09:27:40;98764.22;;;3.42;97.08
75794;BME280;64418;47.536;19.074;2023-01-19T09:30:07;98761.72;;;3.40;97.10
75794;BME280;64418;47.536;19.074;2023-01-19T09:32:33;98757.44;;;3.46;97.34
75794;BME280;64418;47.536;19.074;2023-01-19T09:34:59;98744.22;;;3.45;97.00
75794;BME280;64418;47.536;19.074;2023-01-19T09:37:26;98746.50;;;3.48;96.64
75794;BME280;64418;47.536;19.074;2023-01-19T09:39:53;98764.03;;;3.50;96.66
75794;BME280;64418;47.536;19.074;2023-01-19T09:42:26;98750.66;;;3.50;96.50
75794;BME280;64418;47.536;19.074;2023-01-19T09:44:55;98758.47;;;3.52;97.21
75794;BME280;64418;47.536;19.074;2023-01-19T09:47:23;98760.34;;;3.51;96.80
75794;BME280;64418;47.536;19.074;2023-01-19T09:49:54;98744.03;;;3.46;96.54
75794;BME280;64418;47.536;19.074;2023-01-19T09:52:22;98739.53;;;3.47;96.78
75794;BME280;64418;47.536;19.074;2023-01-19T09:54:51;98737.03;;;3.45;96.71
75794;BME280;64418;47.536;19.074;2023-01-19T09:57:20;98758.66;;;3.44;96.65
75794;BME280;64418;47.536;19.074;2023-01-19T09:59:46;98760.88;;;3.40;97.13
75794;BME280;64418;47.536;19.074;2023-01-19T10:02:26;98765.03;;;3.36;97.02
75794;BME280;64418;47.536;19.074;2023-01-19T10:04:59;98755.72;;;3.32;96.93
75794;BME280;64418;47.536;19.074;2023-01-19T10:07:48;98755.69;;;3.25;97.10
75794;BME280;64418;47.536;19.074;2023-01-19T10:10:20;98767.81;;;3.21;97.56
75794;BME280;64418;47.536;19.074;2023-01-19T10:13:08;98760.41;;;3.17;97.76
75794;BME280;64418;47.536;19.074;2023-01-19T10:15:43;98761.00;;;3.12;97.65
75794;BME280;64418;47.536;19.074;2023-01-19T10:18:16;98773.53;;;3.12;98.04
75794;BME280;64418;47.536;19.074;2023-01-19T10:20:47;98774.34;;;3.06;97.68
75794;BME280;64418;47.536;19.074;2023-01-19T10:23:31;98780.06;;;3.03;97.74
75794;BME280;64418;47.536;19.074;2023-01-19T10:26:00;98781.47;;;2.99;97.42
75794;BME280;64418;47.536;19.074;2023-01-19T10:28:32;98783.28;;;2.91;96.75
75794;BME280;64418;47.536;19.074;2023-01-19T10:31:00;98783.50;;;2.90;97.00
75794;BME280;64418;47.536;19.074;2023-01-19T10:33:26;98778.34;;;2.88;97.67
75794;BME280;64418;47.536;19.074;2023-01-19T10:35:53;98775.44;;;2.83;97.13
75794;BME280;64418;47.536;19.074;2023-01-19T10:38:19;98777.09;;;2.84;97.42
75794;BME280;64418;47.536;19.074;2023-01-19T10:40:52;98786.50;;;2.80;97.29
75794;BME280;64418;47.536;19.074;2023-01-19T10:43:39;98778.50;;;2.80;97.37
75794;BME280;64418;47.536;19.074;2023-01-19T10:46:07;98783.22;;;2.78;97.54
75794;BME280;64418;47.536;19.074;2023-01-19T10:48:40;98788.16;;;2.75;97.49
75794;BME280;64418;47.536;19.074;2023-01-19T10:51:08;98788.72;;;2.70;97.72
75794;BME280;64418;47.536;19.074;2023-01-19T10:53:35;98789.31;;;2.66;97.49
75794;BME280;64418;47.536;19.074;2023-01-19T10:56:14;98794.47;;;2.67;98.07
75794;BME280;64418;47.536;19.074;2023-01-19T10:58:43;98802.06;;;2.64;97.51
75794;BME280;64418;47.536;19.074;2023-01-19T11:01:14;98792.38;;;2.63;97.83
75794;BME280;64418;47.536;19.074;2023-01-19T11:03:40;98797.47;;;2.58;97.26
75794;BME280;64418;47.536;19.074;2023-01-19T11:06:25;98789.00;;;2.54;97.08
75794;BME280;64418;47.536;19.074;2023-01-19T11:08:52;98791.50;;;2.56;97.80
75794;BME280;64418;47.536;19.074;2023-01-19T11:11:20;98799.13;;;2.59;97.94
75794;BME280;64418;47.536;19.074;2023-01-19T11:14:06;98794.59;;;2.59;97.24
75794;BME280;64418;47.536;19.074;2023-01-19T11:16:36;98792.56;;;2.61;97.62
75794;BME280;64418;47.536;19.074;2023-01-19T11:19:03;98797.91;;;2.61;97.79
75794;BME280;64418;47.536;19.074;2023-01-19T11:21:31;98803.63;;;2.58;97.13
75794;BME280;64418;47.536;19.074;2023-01-19T11:24:01;98795.19;;;2.55;97.05
75794;BME280;64418;47.536;19.074;2023-01-19T11:26:31;98796.19;;;2.54;97.30
75794;BME280;64418;47.536;19.074;2023-01-19T11:29:16;98795.56;;;2.52;97.14
75794;BME280;64418;47.536;19.074;2023-01-19T11:31:46;98795.13;;;2.48;97.56
75794;BME280;64418;47.536;19.074;2023-01-19T11:34:25;98791.19;;;2.44;97.44
75794;BME280;64418;47.536;19.074;2023-01-19T11:36:56;98787.88;;;2.42;97.64
75794;BME280;64418;47.536;19.074;2023-01-19T11:39:23;98788.91;;;2.41;97.50
75794;BME280;64418;47.536;19.074;2023-01-19T11:41:52;98796.16;;;2.47;97.91
75794;BME280;64418;47.536;19.074;2023-01-19T11:44:22;98812.59;;;2.44;97.13
75794;BME280;64418;47.536;19.074;2023-01-19T11:46:59;98812.19;;;2.47;97.42
75794;BME280;64418;47.536;19.074;2023-01-19T11:49:32;98806.28;;;2.52;97.91
75794;BME280;64418;47.536;19.074;2023-01-19T11:52:04;98806.28;;;2.52;97.24
75794;BME280;64418;47.536;19.074;2023-01-19T11:54:34;98807.13;;;2.59;97.52
75794;BME280;64418;47.536;19.074;2023-01-19T11:57:00;98805.91;;;2.61;97.07
75794;BME280;64418;47.536;19.074;2023-01-19T11:59:28;98809.25;;;2.63;96.99
75794;BME280;64418;47.536;19.074;2023-01-19T12:01:56;98813.03;;;2.75;97.00
75794;BME280;64418;47.536;19.074;2023-01-19T12:04:29;98821.41;;;2.72;96.74
75794;BME280;64418;47.536;19.074;2023-01-19T12:06:56;98819.72;;;2.65;96.99
75794;BME280;64418;47.536;19.074;2023-01-19T12:09:26;98826.94;;;2.64;96.76
75794;BME280;64418;47.536;19.074;2023-01-19T12:11:57;98833.72;;;2.67;97.45
75794;BME280;64418;47.536;19.074;2023-01-19T12:14:33;98827.56;;;2.66;97.37
75794;BME280;64418;47.536;19.074;2023-01-19T12:17:02;98829.97;;;2.61;97.07
75794;BME280;64418;47.536;19.074;2023-01-19T12:19:38;98835.31;;;2.61;96.84
75794;BME280;64418;47.536;19.074;2023-01-19T12:22:10;98838.81;;;2.62;97.12
75794;BME280;64418;47.536;19.074;2023-01-19T12:24:40;98849.97;;;2.65;97.01
75794;BME280;64418;47.536;19.074;2023-01-19T12:27:17;98854.91;;;2.68;97.41
75794;BME280;64418;47.536;19.074;2023-01-19T12:29:47;98853.06;;;2.69;97.73
75794;BME280;64418;47.536;19.074;2023-01-19T12:32:18;98836.97;;;2.62;97.68
75794;BME280;64418;47.536;19.074;2023-01-19T12:34:45;98856.78;;;2.68;97.48
75794;BME280;64418;47.536;19.074;2023-01-19T12:37:32;98857.97;;;2.65;97.37
75794;BME280;64418;47.536;19.074;2023-01-19T12:40:01;98865.59;;;2.68;97.07
75794;BME280;64418;47.536;19.074;2023-01-19T12:42:28;98869.94;;;2.69;96.90
75794;BME280;64418;47.536;19.074;2023-01-19T12:45:04;98866.81;;;2.66;96.94
75794;BME280;64418;47.536;19.074;2023-01-19T12:47:31;98866.66;;;2.67;97.07
75794;BME280;64418;47.536;19.074;2023-01-19T12:49:58;98866.00;;;2.65;97.54
75794;BME280;64418;47.536;19.074;2023-01-19T12:52:31;98876.69;;;2.65;97.14
75794;BME280;64418;47.536;19.074;2023-01-19T12:55:00;98879.56;;;2.64;97.29
75794;BME280;64418;47.536;19.074;2023-01-19T12:57:30;98880.59;;;2.63;96.90
75794;BME280;64418;47.536;19.074;2023-01-19T13:00:03;98883.25;;;2.63;97.07
75794;BME280;64418;47.536;19.074;2023-01-19T13:02:50;98888.16;;;2.59;96.26
75794;BME280;64418;47.536;19.074;2023-01-19T13:08:24;98894.56;;;2.65;96.94